Soaring Guidance
Issued by NWS Reno, NV

Home | Current Version | Previous Version | Text Only | Print | Product List | Glossary On
Versions: 1 2 3 4 5 6 7 8 9 10 11 12 13 14 15 16
236
UXUS97 KREV 171451
SRGREV

SOARING FORECAST
NATIONAL WEATHER SERVICE - RENO NV
700 AM PST TUE JAN 17 2017

THIS SOARING FORECAST IS FOR THE EASTERN SIERRA AND WESTERN NEVADA
WITH SPECIFIC INDICES FOR THE GREATER RENO AREA.

THIS FORECAST IS PREPARED DAILY BY 700 AM AND IS NOT UPDATED.

FOR CURRENT FLIGHT CONDITIONS...FORECASTS...AND ADVISORIES...ACCESS
YOUR LOCAL BRIEFING OUTLET OR FLIGHT SERVICE STATION.

*******************************************************************
FORECASTED LOCAL INDICES FOR RENO:        TODAY     YESTERDAY
FORECASTED MAX TEMP AT RENO (DEG F).....     45          36
FORECASTED TRIGGER TEMPERATURE (DEG F)..     62          51
   EXCEEDED YESTERDAY BY
FORECASTED MAXIMUM ALTITUDE (FT MSL)....   6600        7200
FORECASTED SOARING INDEX (FPM)..........    318         336
FORECASTED K-INDEX.........VALID 18Z....     -4         -23
FORECASTED K-INDEX.........VALID 00Z....      2         -15
FORECASTED LIFTED INDEX....VALID 18Z....      4          14
FORECASTED LIFTED INDEX....VALID 00Z....      5          11

AFTERNOON WINDS ALOFT FORECAST
MSL (FT) WIND/TEMP
9000  2410/+06
10000 2511/+04
12000 2713/+00
14000 2614/-04
16000 2615/-08
18000 2616/-13
24000 3025/-24
30000 3339/-41
34000 3250/-52
39000 3237/-63

SLIDE MOUNTAIN DATA:
     DATE       TIME     TEMP  DEWPT   RH         WIND (MPH)
                        (F)   (F)           | DIR  SPEED GUST
2017-01-17    05:50      36    25     54    | 320   10   18
2017-01-17    05:30      36    26     56    | 330   10   15
2017-01-17    05:20      36    26     56    | 316    7    9
2017-01-17    05:00      36    26     54    | 310    7    9

RENO TAF FORECAST:
KRNO 171124Z 1712/1812 20006KT P6SM SCT010 BKN015
     FM172000 20006KT P6SM FEW025 SCT180
     FM180100 VRB03KT P6SM SCT120 BKN180
     FM181000 18004KT P6SM SCT100 OVC180 WS020/23035KT

CARSON CITY TAF FORECAST:
KCXP 171124Z 1712/1812 VRB03KT P6SM OVC010
     FM171900 VRB04KT P6SM BKN015
     FM172200 10009KT P6SM FEW020 SCT180
     FM180200 VRB03KT P6SM SCT120 BKN180
     FM181000 16006KT P6SM SCT100 OVC180 WS020/23035KT

OUTLOOK FOR THE RENO-CARSON CITY-MINDEN AREA:
.WEDNESDAY...MOSTLY CLOUDY WITH A SLIGHT CHANCE OF RAIN AND SNOW.
HIGHS 45 TO 50. SOUTHWEST WINDS 10 TO 20 MPH WITH GUSTS UP TO
45 MPH.

SUNRISE AND SUNSET
JANUARY 17 2017.......SUNRISE   717 AM PST   SUNSET   502 PM PST
JANUARY 18 2017.......SUNRISE   716 AM PST   SUNSET   503 PM PST



USA.gov is the U.S. government's official web portal to all federal, state and local government web resources and services.